Time;durP1;ratioP1;P1;durP2;ratioP2;P2;SDS_P1;SDS_P2;PMS_P1;PMS_P2;Temp;Humidity;BMP_temperature;BMP_pressure;BME280_temperature;BME280_humidity;BME280_pressure;Samples;Min_cycle;Max_cycle;Signal;HPM_P1;HPM_P2
2022/06/20 00:01:22;;;;;;;7.15;1.95;;;11.80;99.90;;;;;;5104585;28;20043;-59
2022/06/20 00:03:50;;;;;;;8.57;1.83;;;11.70;99.90;;;;;;5108642;28;20062;-59
2022/06/20 00:06:21;;;;;;;5.10;1.88;;;11.70;99.90;;;;;;5110171;28;20044;-59
2022/06/20 00:08:51;;;;;;;7.63;1.98;;;11.60;99.90;;;;;;5102534;28;20044;-59
2022/06/20 00:11:23;;;;;;;10.52;2.42;;;11.50;99.90;;;;;;5089894;28;20059;-58
2022/06/20 00:13:54;;;;;;;12.02;1.92;;;11.50;99.90;;;;;;5106920;28;20047;-58
2022/06/20 00:16:24;;;;;;;7.72;2.30;;;11.40;99.90;;;;;;5110222;28;20383;-58
2022/06/20 00:18:52;;;;;;;5.45;1.83;;;11.40;99.90;;;;;;5099465;28;20040;-57
2022/06/20 00:21:22;;;;;;;9.70;1.98;;;11.30;99.90;;;;;;5090002;28;20044;-58
2022/06/20 00:23:50;;;;;;;6.35;2.10;;;11.30;99.90;;;;;;5093821;28;20048;-57
2022/06/20 00:26:18;;;;;;;9.02;2.10;;;11.20;99.90;;;;;;5089505;28;20048;-58
2022/06/20 00:28:46;;;;;;;10.60;2.10;;;11.20;99.90;;;;;;5098978;28;20040;-56
2022/06/20 00:31:14;;;;;;;11.55;2.38;;;11.10;99.90;;;;;;5088202;28;20052;-57
2022/06/20 00:33:43;;;;;;;7.70;2.30;;;11.10;99.90;;;;;;5106807;28;20066;-58
2022/06/20 00:36:11;;;;;;;6.72;2.15;;;11.10;99.90;;;;;;5107936;28;20047;-58
2022/06/20 00:38:42;;;;;;;8.15;2.15;;;11.00;99.90;;;;;;5099086;28;20047;-56
2022/06/20 00:41:20;;;;;;;9.10;3.00;;;10.90;99.90;;;;;;5103350;28;20036;-57
2022/06/20 00:43:51;;;;;;;6.75;1.58;;;10.90;99.90;;;;;;5108775;28;20042;-57
2022/06/20 00:46:45;;;;;;;9.05;2.00;;;10.80;99.90;;;;;;5108702;28;20043;-58
2022/06/20 00:49:59;;;;;;;8.52;2.35;;;10.80;99.90;;;;;;5093627;28;20043;-57
2022/06/20 00:52:52;;;;;;;5.70;1.80;;;10.70;99.90;;;;;;5108868;28;20070;-56
2022/06/20 00:55:55;;;;;;;5.13;1.98;;;10.70;99.90;;;;;;5090916;28;20498;-57
2022/06/20 00:58:52;;;;;;;12.18;2.10;;;10.60;99.90;;;;;;5101986;28;20059;-57
2022/06/20 01:01:41;;;;;;;6.57;1.80;;;10.60;99.90;;;;;;5091688;28;20066;-58
2022/06/20 01:04:36;;;;;;;6.95;2.13;;;10.50;99.90;;;;;;5089894;28;20530;-57
2022/06/20 01:07:28;;;;;;;9.90;2.85;;;10.40;99.90;;;;;;5100399;28;20513;-56
2022/06/20 01:10:15;;;;;;;8.95;2.20;;;10.40;99.90;;;;;;5096817;28;20051;-56
2022/06/20 01:13:06;;;;;;;8.20;2.25;;;10.40;99.90;;;;;;5092648;28;20536;-58
2022/06/20 01:16:04;;;;;;;5.38;1.88;;;10.30;99.90;;;;;;5092222;28;20059;-58
2022/06/20 01:18:51;;;;;;;8.88;2.10;;;10.30;99.90;;;;;;5092637;28;20071;-57
2022/06/20 01:21:37;;;;;;;10.95;2.35;;;10.30;99.90;;;;;;5098668;28;20043;-56
2022/06/20 01:24:31;;;;;;;13.77;2.42;;;10.30;99.90;;;;;;5112718;28;20062;-57
2022/06/20 01:27:28;;;;;;;10.10;2.63;;;10.20;99.90;;;;;;5112666;28;20593;-56
2022/06/20 01:30:14;;;;;;;10.50;2.55;;;10.20;99.90;;;;;;5112705;28;20410;-58
2022/06/20 01:33:00;;;;;;;7.88;2.20;;;10.20;99.90;;;;;;5100161;28;20058;-58
2022/06/20 01:38:54;;;;;;;10.18;2.80;;;10.10;99.90;;;;;;5099199;28;20055;-58
2022/06/20 01:45:00;;;;;;;8.68;2.35;;;10.00;99.90;;;;;;5094759;28;20050;-57
2022/06/20 01:47:46;;;;;;;6.97;2.20;;;9.90;99.90;;;;;;5092611;28;20059;-58
2022/06/20 01:50:33;;;;;;;5.97;2.05;;;9.80;99.90;;;;;;5094020;28;20036;-58
2022/06/20 01:53:26;;;;;;;9.02;2.33;;;9.80;99.90;;;;;;5093947;28;20388;-58
2022/06/20 01:56:12;;;;;;;7.57;2.17;;;9.70;99.90;;;;;;5103265;28;20048;-57
2022/06/20 01:59:10;;;;;;;9.25;2.00;;;9.70;99.90;;;;;;5113330;28;20055;-59
2022/06/20 02:01:57;;;;;;;4.35;1.40;;;9.70;99.90;;;;;;5112907;28;20043;-58
2022/06/20 02:04:45;;;;;;;8.32;2.28;;;9.60;99.90;;;;;;5113931;28;20040;-58
2022/06/20 02:07:32;;;;;;;8.55;2.60;;;9.60;99.90;;;;;;5111856;28;20043;-58
2022/06/20 02:10:25;;;;;;;8.52;2.15;;;9.50;99.90;;;;;;5112898;28;20043;-58
2022/06/20 02:13:13;;;;;;;7.05;2.15;;;9.50;99.90;;;;;;5112468;28;20044;-58
2022/06/20 02:16:04;;;;;;;7.43;2.17;;;9.40;99.90;;;;;;5113972;28;20052;-58
2022/06/20 02:18:53;;;;;;;7.15;2.50;;;9.40;99.90;;;;;;5111183;28;20051;-58
2022/06/20 02:21:41;;;;;;;8.27;2.30;;;9.40;99.90;;;;;;5113607;28;20039;-58
2022/06/20 02:24:31;;;;;;;7.75;2.15;;;9.40;99.90;;;;;;5112257;28;20043;-58
2022/06/20 02:27:26;;;;;;;7.60;2.10;;;9.40;99.90;;;;;;5109585;28;20491;-58
2022/06/20 02:30:12;;;;;;;4.85;2.08;;;9.40;99.90;;;;;;5112265;28;20048;-57
2022/06/20 02:33:09;;;;;;;7.78;2.75;;;9.30;99.90;;;;;;5113307;28;20051;-59
2022/06/20 02:36:00;;;;;;;6.95;1.90;;;9.30;99.90;;;;;;5111143;28;20048;-59
2022/06/20 02:38:46;;;;;;;8.07;2.38;;;9.30;99.90;;;;;;5111489;28;20047;-58
2022/06/20 02:41:33;;;;;;;6.95;2.00;;;9.30;99.90;;;;;;5113653;28;20043;-59
2022/06/20 02:44:21;;;;;;;9.68;2.03;;;9.30;99.90;;;;;;5112416;28;20043;-59
2022/06/20 02:47:08;;;;;;;6.20;2.47;;;9.30;99.90;;;;;;5112304;28;20052;-59
2022/06/20 02:49:57;;;;;;;4.63;1.70;;;9.30;99.90;;;;;;5113171;28;20051;-58
2022/06/20 02:52:50;;;;;;;6.00;2.25;;;9.20;99.90;;;;;;5113182;28;20047;-57
2022/06/20 02:55:38;;;;;;;6.78;1.65;;;9.20;99.90;;;;;;5111020;28;20039;-58
2022/06/20 02:58:29;;;;;;;4.18;2.53;;;9.10;99.90;;;;;;5112953;28;20044;-58
2022/06/20 03:01:26;;;;;;;5.95;2.40;;;9.10;99.90;;;;;;5111831;28;20043;-58
2022/06/20 03:04:13;;;;;;;6.65;1.90;;;9.10;99.90;;;;;;5112993;28;20047;-57
2022/06/20 03:07:09;;;;;;;7.60;2.20;;;9.00;99.90;;;;;;5110942;28;20055;-58
2022/06/20 03:10:02;;;;;;;5.65;2.08;;;9.00;99.90;;;;;;5110140;28;20491;-58
2022/06/20 03:12:48;;;;;;;3.47;2.15;;;9.00;99.90;;;;;;5112861;28;20047;-56
2022/06/20 03:15:36;;;;;;;5.10;1.60;;;8.90;99.90;;;;;;5111557;28;20044;-57
2022/06/20 03:18:23;;;;;;;7.97;3.15;;;8.90;99.90;;;;;;5109439;28;20044;-58
2022/06/20 03:21:10;;;;;;;8.65;2.15;;;8.90;99.90;;;;;;5092861;28;20488;-56
2022/06/20 03:23:56;;;;;;;7.57;2.33;;;8.90;99.90;;;;;;5092154;28;20051;-57
2022/06/20 03:26:41;;;;;;;5.53;1.88;;;8.80;99.90;;;;;;5105754;28;20364;-58
2022/06/20 03:29:28;;;;;;;6.13;1.88;;;8.80;99.90;;;;;;5112400;28;20048;-58
2022/06/20 03:32:14;;;;;;;4.28;2.10;;;8.70;99.90;;;;;;5111056;28;20490;-58
2022/06/20 03:35:00;;;;;;;9.15;2.42;;;8.70;99.90;;;;;;5111987;28;20052;-57
2022/06/20 03:37:46;;;;;;;3.60;2.00;;;8.60;99.90;;;;;;5112319;28;20048;-58
2022/06/20 03:40:35;;;;;;;9.68;1.92;;;8.60;99.90;;;;;;5109912;28;20051;-58
2022/06/20 03:43:23;;;;;;;9.27;2.50;;;8.60;99.90;;;;;;5112029;28;20039;-58
2022/06/20 03:46:16;;;;;;;6.20;2.10;;;8.60;99.90;;;;;;5110255;28;20048;-57
2022/06/20 03:49:26;;;;;;;6.30;2.03;;;8.70;99.90;;;;;;5113483;28;20052;-56
2022/06/20 03:52:24;;;;;;;6.15;2.35;;;8.80;99.90;;;;;;5112183;28;20052;-56
2022/06/20 03:55:43;;;;;;;5.30;2.13;;;8.90;99.90;;;;;;5109579;28;20035;-55
2022/06/20 03:58:37;;;;;;;7.07;1.95;;;9.00;99.90;;;;;;5093293;28;20060;-58
2022/06/20 04:01:31;;;;;;;5.68;2.13;;;9.00;99.90;;;;;;5102577;28;20051;-58
2022/06/20 04:04:46;;;;;;;4.45;1.77;;;9.10;99.90;;;;;;5111929;28;20044;-57
2022/06/20 04:07:53;;;;;;;5.82;1.80;;;9.20;99.90;;;;;;5111895;28;20044;-58
2022/06/20 04:10:58;;;;;;;5.63;1.80;;;9.20;99.90;;;;;;5110261;28;20047;-58
2022/06/20 04:14:03;;;;;;;12.20;2.95;;;9.30;99.90;;;;;;5110823;28;20392;-58
2022/06/20 04:16:58;;;;;;;5.50;2.35;;;9.30;99.90;;;;;;5111821;28;20055;-57
2022/06/20 04:19:47;;;;;;;3.95;2.15;;;9.40;99.90;;;;;;5112029;28;20494;-58
2022/06/20 04:22:39;;;;;;;6.60;2.10;;;9.40;99.90;;;;;;5112574;28;20048;-58
2022/06/20 04:25:24;;;;;;;8.10;1.80;;;9.50;99.90;;;;;;5110873;28;20040;-58
2022/06/20 04:28:32;;;;;;;10.75;2.53;;;9.50;99.90;;;;;;5109673;28;20044;-58
2022/06/20 04:31:43;;;;;;;8.27;1.98;;;9.60;99.90;;;;;;5091507;28;20517;-58
2022/06/20 04:34:43;;;;;;;12.38;2.30;;;9.60;99.90;;;;;;5099651;28;20048;-58
2022/06/20 04:37:38;;;;;;;7.43;2.90;;;9.70;99.90;;;;;;5115629;28;20074;-57
2022/06/20 04:40:43;;;;;;;7.50;2.70;;;9.80;99.90;;;;;;5115510;28;20048;-58
2022/06/20 04:43:40;;;;;;;6.18;2.72;;;9.80;99.90;;;;;;5115580;28;20036;-57
2022/06/20 04:46:31;;;;;;;8.77;2.25;;;9.90;99.90;;;;;;5112937;28;20063;-58
2022/06/20 04:49:18;;;;;;;13.52;2.80;;;10.00;99.90;;;;;;5091325;28;20056;-56
2022/06/20 04:52:10;;;;;;;4.15;1.83;;;10.00;99.90;;;;;;5091560;28;20047;-57
2022/06/20 04:54:57;;;;;;;5.13;2.20;;;10.10;99.90;;;;;;5091422;28;20059;-57
2022/06/20 04:57:44;;;;;;;7.05;2.60;;;10.10;99.90;;;;;;5092899;28;20051;-57
2022/06/20 05:00:42;;;;;;;9.55;2.97;;;10.10;99.90;;;;;;5107422;28;20050;-59
2022/06/20 05:03:35;;;;;;;7.93;2.08;;;10.10;99.90;;;;;;5103343;28;20043;-58
2022/06/20 05:06:25;;;;;;;7.65;2.30;;;10.10;99.90;;;;;;5091351;28;20252;-58
2022/06/20 05:09:16;;;;;;;8.10;2.92;;;10.00;99.90;;;;;;5093841;28;20560;-56
2022/06/20 05:12:25;;;;;;;9.68;2.55;;;10.00;99.90;;;;;;5090372;28;20515;-58
2022/06/20 05:15:36;;;;;;;6.60;2.22;;;9.90;99.90;;;;;;5089570;28;20063;-56
2022/06/20 05:18:22;;;;;;;7.07;2.38;;;9.80;99.90;;;;;;5088897;28;20408;-56
2022/06/20 05:21:17;;;;;;;4.22;2.38;;;9.90;99.90;;;;;;5106212;28;20586;-56
2022/06/20 05:24:14;;;;;;;7.85;2.55;;;9.80;99.90;;;;;;5110147;28;20047;-57
2022/06/20 05:27:07;;;;;;;6.22;2.67;;;9.80;99.90;;;;;;5109514;28;20047;-56
2022/06/20 05:29:55;;;;;;;15.77;3.20;;;9.80;99.90;;;;;;5089446;28;20444;-56
2022/06/20 05:32:49;;;;;;;11.82;2.42;;;9.90;99.90;;;;;;5101295;28;20434;-56
2022/06/20 05:35:44;;;;;;;11.20;2.33;;;9.90;99.90;;;;;;5107807;28;20611;-56
2022/06/20 05:38:31;;;;;;;6.97;2.30;;;9.90;99.90;;;;;;5098687;28;20044;-57
2022/06/20 05:41:00;;;;;;;5.45;2.45;;;10.00;99.90;;;;;;5094683;28;20043;-56
2022/06/20 05:43:30;;;;;;;11.43;2.40;;;10.00;99.90;;;;;;5109068;28;20035;-58
2022/06/20 05:46:01;;;;;;;4.78;2.30;;;10.00;99.90;;;;;;5109862;28;20043;-56
2022/06/20 05:48:37;;;;;;;8.23;2.30;;;10.10;99.90;;;;;;5093086;28;20040;-56
2022/06/20 05:51:08;;;;;;;9.70;2.35;;;10.10;99.90;;;;;;5089835;28;20067;-58
2022/06/20 05:53:38;;;;;;;5.47;2.20;;;10.20;99.90;;;;;;5108250;28;20044;-57
2022/06/20 05:56:14;;;;;;;10.90;2.28;;;10.20;99.90;;;;;;5110807;28;20047;-57
2022/06/20 05:58:44;;;;;;;8.40;2.55;;;10.30;99.90;;;;;;5097295;28;20051;-57
2022/06/20 06:01:16;;;;;;;8.13;2.58;;;10.30;99.90;;;;;;5102257;28;20051;-57
2022/06/20 06:04:02;;;;;;;6.90;1.95;;;10.40;99.90;;;;;;5109839;28;20040;-58
2022/06/20 06:06:39;;;;;;;5.45;1.73;;;10.50;99.90;;;;;;5104726;28;20359;-58
2022/06/20 06:09:19;;;;;;;6.90;1.95;;;10.60;99.90;;;;;;5089472;28;20044;-58
2022/06/20 06:11:55;;;;;;;6.07;2.33;;;10.70;99.90;;;;;;5103773;28;20051;-58
2022/06/20 06:14:34;;;;;;;6.30;1.70;;;10.80;99.90;;;;;;5108886;28;20189;-56
2022/06/20 06:17:24;;;;;;;5.47;2.00;;;10.90;99.90;;;;;;5107768;28;20044;-56
2022/06/20 06:20:17;;;;;;;4.85;1.60;;;11.00;99.90;;;;;;5102167;28;20047;-57
2022/06/20 06:22:49;;;;;;;5.65;1.77;;;11.20;99.90;;;;;;5091493;28;20056;-55
2022/06/20 06:25:26;;;;;;;4.55;1.50;;;11.20;99.90;;;;;;5105485;28;20043;-56
2022/06/20 06:28:06;;;;;;;5.07;1.67;;;11.30;99.90;;;;;;5103550;28;20062;-57
2022/06/20 06:30:44;;;;;;;5.60;1.58;;;11.40;99.90;;;;;;5101330;28;20043;-56
2022/06/20 06:33:20;;;;;;;5.25;1.50;;;11.50;99.90;;;;;;5105035;28;20066;-57
2022/06/20 06:36:12;;;;;;;6.35;1.38;;;11.60;99.90;;;;;;5101731;28;20048;-56
2022/06/20 06:38:58;;;;;;;1.70;1.23;;;11.60;99.90;;;;;;5094826;28;20055;-57
2022/06/20 06:41:32;;;;;;;5.65;1.90;;;11.70;99.90;;;;;;5106445;28;20051;-57
2022/06/20 06:44:04;;;;;;;3.17;1.63;;;11.80;99.90;;;;;;5107203;28;20913;-56
2022/06/20 06:46:38;;;;;;;6.43;1.80;;;11.90;99.90;;;;;;5093363;28;20047;-58
2022/06/20 06:49:08;;;;;;;3.95;1.50;;;11.90;99.90;;;;;;5094987;28;20052;-56
2022/06/20 06:51:58;;;;;;;7.10;2.30;;;12.00;99.90;;;;;;5091985;28;20044;-56
2022/06/20 06:54:28;;;;;;;2.63;1.25;;;12.10;99.90;;;;;;5101724;28;20043;-57
2022/06/20 06:57:05;;;;;;;5.30;1.30;;;12.10;99.90;;;;;;5108158;28;20608;-57
2022/06/20 06:59:43;;;;;;;4.45;1.67;;;12.20;99.90;;;;;;5094767;28;20043;-56
2022/06/20 07:02:23;;;;;;;6.00;1.58;;;12.30;99.90;;;;;;5106505;28;20051;-58
2022/06/20 07:05:00;;;;;;;4.20;1.45;;;12.40;99.90;;;;;;5099613;28;20051;-57
2022/06/20 07:08:12;;;;;;;2.90;1.58;;;12.40;99.90;;;;;;5104562;28;20047;-57
2022/06/20 07:11:21;;;;;;;9.25;1.77;;;12.50;99.90;;;;;;5102945;28;20410;-58
2022/06/20 07:14:00;;;;;;;5.18;1.98;;;12.60;99.90;;;;;;5090463;28;20070;-58
2022/06/20 07:16:33;;;;;;;5.68;1.10;;;12.70;99.90;;;;;;5110829;28;20051;-57
2022/06/20 07:19:05;;;;;;;2.75;1.58;;;12.70;99.90;;;;;;5095786;28;20046;-57
2022/06/20 07:21:33;;;;;;;5.60;1.60;;;12.80;99.90;;;;;;5109285;28;20600;-58
2022/06/20 07:24:22;;;;;;;3.95;1.90;;;12.90;99.90;;;;;;5104541;28;20429;-58
2022/06/20 07:26:54;;;;;;;8.37;1.90;;;12.90;99.90;;;;;;5104530;28;20054;-58
2022/06/20 07:29:26;;;;;;;4.90;1.60;;;13.00;99.90;;;;;;5092870;28;21060;-57
2022/06/20 07:32:03;;;;;;;4.00;1.55;;;13.10;99.90;;;;;;5098590;28;20392;-58
2022/06/20 07:34:43;;;;;;;2.42;1.42;;;13.20;99.90;;;;;;5100930;28;20410;-57
2022/06/20 07:37:15;;;;;;;2.50;1.10;;;13.20;99.90;;;;;;5096820;28;20055;-58
2022/06/20 07:39:51;;;;;;;4.10;1.40;;;13.30;99.90;;;;;;5090368;28;20074;-57
2022/06/20 07:42:25;;;;;;;4.70;1.75;;;13.40;99.90;;;;;;5090170;28;20048;-58
2022/06/20 07:44:57;;;;;;;7.30;2.03;;;13.50;99.90;;;;;;5090276;28;20036;-56
2022/06/20 07:47:33;;;;;;;10.07;2.58;;;13.50;99.90;;;;;;5088709;28;20545;-58
2022/06/20 07:50:15;;;;;;;4.90;1.50;;;13.60;99.90;;;;;;5088893;28;20055;-57
2022/06/20 07:52:51;;;;;;;2.42;1.30;;;13.70;99.90;;;;;;5089960;28;20395;-57
2022/06/20 07:55:23;;;;;;;6.68;1.30;;;13.70;99.90;;;;;;5090069;28;20036;-58
2022/06/20 07:57:55;;;;;;;3.53;1.20;;;13.80;99.90;;;;;;5089791;28;20044;-57
2022/06/20 08:00:29;;;;;;;4.60;1.42;;;13.90;99.90;;;;;;5089110;28;20051;-58
2022/06/20 08:03:28;;;;;;;7.47;1.33;;;13.90;99.90;;;;;;5088889;28;20044;-56
2022/06/20 08:06:03;;;;;;;2.63;1.30;;;14.00;99.90;;;;;;5101658;28;20048;-58
2022/06/20 08:08:34;;;;;;;3.97;1.10;;;14.00;99.90;;;;;;5106030;28;20047;-56
2022/06/20 08:11:11;;;;;;;3.50;1.58;;;14.10;99.90;;;;;;5106218;27;20055;-58
2022/06/20 08:13:48;;;;;;;8.70;1.88;;;14.10;99.90;;;;;;5092769;28;20055;-57
2022/06/20 08:16:28;;;;;;;5.07;1.40;;;14.20;99.90;;;;;;5094600;28;20518;-59
2022/06/20 08:18:56;;;;;;;10.13;1.75;;;14.30;99.90;;;;;;5094046;28;20040;-58
2022/06/20 08:21:34;;;;;;;7.20;1.60;;;14.40;99.90;;;;;;5098005;28;20038;-58
2022/06/20 08:24:10;;;;;;;4.38;1.50;;;14.40;99.90;;;;;;5112071;28;20077;-58
2022/06/20 08:26:47;;;;;;;5.10;1.35;;;14.50;99.90;;;;;;5112386;28;20039;-58
2022/06/20 08:29:21;;;;;;;5.25;1.40;;;14.50;99.90;;;;;;5093711;28;20395;-58
2022/06/20 08:31:52;;;;;;;5.07;1.10;;;14.50;99.90;;;;;;5108431;28;20062;-58
2022/06/20 08:34:36;;;;;;;5.97;1.98;;;14.60;99.90;;;;;;5114197;28;20035;-58
2022/06/20 08:37:29;;;;;;;2.58;1.30;;;14.70;99.90;;;;;;5112826;28;20502;-59
2022/06/20 08:40:01;;;;;;;3.47;1.15;;;14.80;99.90;;;;;;5075666;28;20047;-56
2022/06/20 08:42:51;;;;;;;3.80;1.05;;;14.90;99.90;;;;;;5094596;28;20051;-58
2022/06/20 08:46:20;;;;;;;4.40;1.20;;;15.00;99.90;;;;;;5093403;28;20052;-57
2022/06/20 08:49:06;;;;;;;3.38;1.20;;;15.10;99.90;;;;;;5093343;28;20487;-57
2022/06/20 08:52:08;;;;;;;4.15;1.67;;;15.20;99.90;;;;;;5099445;28;20046;-56
2022/06/20 08:55:21;;;;;;;6.22;1.58;;;15.30;99.90;;;;;;5112669;28;20081;-58
2022/06/20 08:58:12;;;;;;;4.80;1.50;;;15.40;99.90;;;;;;5093707;28;20626;-57
2022/06/20 09:00:54;;;;;;;8.30;1.33;;;15.60;99.90;;;;;;5091826;28;20056;-58
2022/06/20 09:03:38;;;;;;;6.57;2.28;;;15.60;99.90;;;;;;5110926;28;20040;-58
2022/06/20 09:06:07;;;;;;;5.63;1.52;;;15.70;99.90;;;;;;5098056;28;20059;-57
2022/06/20 09:08:38;;;;;;;4.50;1.02;;;15.80;99.90;;;;;;5091788;28;20048;-56
2022/06/20 09:11:20;;;;;;;5.78;1.10;;;15.90;99.90;;;;;;5092803;28;20048;-55
2022/06/20 09:14:16;;;;;;;4.10;1.27;;;16.00;99.90;;;;;;5111839;28;20031;-56
2022/06/20 09:17:19;;;;;;;7.22;1.23;;;16.10;99.90;;;;;;5113274;28;20058;-56
2022/06/20 09:20:01;;;;;;;5.10;1.40;;;15.90;99.90;;;;;;5109479;28;20655;-55
2022/06/20 09:22:49;;;;;;;5.40;1.38;;;15.90;99.90;;;;;;5092588;28;20048;-57
2022/06/20 09:25:29;;;;;;;4.28;1.65;;;16.00;99.90;;;;;;5110424;28;20059;-58
2022/06/20 09:28:00;;;;;;;;;;;16.10;99.90;;;;;;5106804;28;20055;-57
2022/06/20 09:30:33;;;;;;;;;;;16.20;99.90;;;;;;5091879;28;20364;-56
2022/06/20 09:33:12;;;;;;;3.10;1.30;;;16.30;99.90;;;;;;5108959;28;19924;-57
2022/06/20 09:35:48;;;;;;;3.00;1.27;;;16.40;99.10;;;;;;5102314;28;20051;-56
2022/06/20 09:38:38;;;;;;;6.07;1.40;;;16.50;99.60;;;;;;5096782;28;20044;-57
2022/06/20 09:41:36;;;;;;;4.45;1.27;;;16.70;99.90;;;;;;5112848;28;20047;-57
2022/06/20 09:44:35;;;;;;;9.40;1.92;;;16.90;99.90;;;;;;5112802;28;20062;-56
2022/06/20 09:47:21;;;;;;;4.47;1.23;;;17.10;99.80;;;;;;5094296;27;20048;-57
2022/06/20 09:50:20;;;;;;;4.85;1.27;;;17.20;99.50;;;;;;5108440;28;20035;-58
2022/06/20 09:53:21;;;;;;;4.32;2.30;;;17.30;99.00;;;;;;5109930;28;20051;-57
2022/06/20 09:55:58;;;;;;;4.55;1.42;;;17.30;99.30;;;;;;5094563;28;20054;-57
2022/06/20 09:58:38;;;;;;;4.93;1.50;;;17.40;99.10;;;;;;5100914;28;20416;-57
2022/06/20 10:01:33;;;;;;;5.28;1.33;;;17.60;99.30;;;;;;5105709;28;20051;-57
2022/06/20 10:04:17;;;;;;;;;;;17.90;98.90;;;;;;5107002;28;20047;-57
2022/06/20 10:07:15;;;;;;;4.95;1.40;;;18.00;98.50;;;;;;5094051;28;19927;-57
2022/06/20 10:10:09;;;;;;;7.70;1.10;;;18.10;97.80;;;;;;5091290;28;20398;-57
2022/06/20 10:12:51;;;;;;;2.30;1.00;;;18.10;97.70;;;;;;5105745;28;20048;-58
2022/06/20 10:15:35;;;;;;;4.07;1.05;;;18.20;97.50;;;;;;5102676;28;20044;-57
2022/06/20 10:18:08;;;;;;;6.30;1.30;;;18.30;96.80;;;;;;5103554;28;20506;-57
2022/06/20 10:21:24;;;;;;;5.47;2.05;;;18.40;96.50;;;;;;5093040;28;20236;-57
2022/06/20 10:24:04;;;;;;;4.80;1.20;;;18.80;96.60;;;;;;5084862;28;20040;-57
2022/06/20 10:26:40;;;;;;;8.38;1.55;;;19.00;95.30;;;;;;5093024;28;20040;-57
2022/06/20 10:29:25;;;;;;;3.38;1.00;;;19.10;95.50;;;;;;5087586;28;20491;-56
2022/06/20 10:31:55;;;;;;;5.53;1.23;;;19.30;95.00;;;;;;5089271;28;20448;-58
2022/06/20 10:34:31;;;;;;;4.97;1.45;;;19.30;94.20;;;;;;5091342;28;20051;-58
2022/06/20 10:37:30;;;;;;;4.55;1.27;;;19.30;93.80;;;;;;5091716;28;20519;-58
2022/06/20 10:40:21;;;;;;;7.60;1.48;;;19.20;93.70;;;;;;5106441;28;20040;-58
2022/06/20 10:42:59;;;;;;;6.47;1.92;;;19.20;93.70;;;;;;5110238;28;20044;-60
2022/06/20 10:45:27;;;;;;;5.93;1.67;;;19.40;93.10;;;;;;5111333;28;20048;-58
2022/06/20 10:48:40;;;;;;;9.07;1.42;;;19.70;93.20;;;;;;5105303;28;20055;-61
2022/06/20 10:51:22;;;;;;;3.38;1.15;;;20.00;93.40;;;;;;5091060;28;20047;-59
2022/06/20 10:54:05;;;;;;;6.85;1.52;;;20.20;92.30;;;;;;5099032;28;20059;-58
2022/06/20 10:57:02;;;;;;;3.25;1.48;;;20.40;91.90;;;;;;5105136;27;20646;-58
2022/06/20 11:00:07;;;;;;;12.95;1.75;;;20.40;91.70;;;;;;5090102;28;20056;-60
2022/06/20 11:03:15;;;;;;;7.65;1.85;;;20.40;91.30;;;;;;5090887;28;20047;-59
2022/06/20 11:05:52;;;;;;;4.75;1.80;;;20.50;91.40;;;;;;5090404;28;20134;-60
2022/06/20 11:08:45;;;;;;;5.05;1.90;;;20.60;90.70;;;;;;5090503;28;20050;-60
2022/06/20 11:11:36;;;;;;;5.45;1.60;;;20.60;91.00;;;;;;5095489;28;20510;-59
2022/06/20 11:14:23;;;;;;;5.88;1.52;;;20.60;90.90;;;;;;5091126;28;20055;-60
2022/06/20 11:17:17;;;;;;;8.73;1.67;;;20.40;90.40;;;;;;5091205;28;20047;-61
2022/06/20 11:20:40;;;;;;;5.13;2.13;;;20.30;90.30;;;;;;5090549;28;20059;-58
2022/06/20 11:23:20;;;;;;;11.75;1.95;;;20.30;89.90;;;;;;5084212;28;20120;-59
2022/06/20 11:25:57;;;;;;;5.47;1.52;;;20.20;89.60;;;;;;5097925;28;20040;-57
2022/06/20 11:28:56;;;;;;;6.28;2.05;;;20.20;90.00;;;;;;5096158;28;20044;-56
2022/06/20 11:31:36;;;;;;;6.65;1.55;;;20.10;90.00;;;;;;5090205;28;20044;-56
2022/06/20 11:34:27;;;;;;;6.28;1.42;;;20.10;90.60;;;;;;5104527;28;20036;-57
2022/06/20 11:37:00;;;;;;;5.53;1.85;;;20.30;90.40;;;;;;5107889;28;20052;-56
2022/06/20 11:39:34;;;;;;;3.33;1.38;;;20.50;90.00;;;;;;5099841;28;20044;-57
2022/06/20 11:42:52;;;;;;;2.90;1.40;;;20.70;88.10;;;;;;5098489;28;20239;-58
2022/06/20 11:46:04;;;;;;;6.00;1.85;;;20.90;88.00;;;;;;5088546;28;20066;-58
2022/06/20 11:48:59;;;;;;;4.88;1.80;;;21.00;88.00;;;;;;5070181;28;20048;-58
2022/06/20 11:51:29;;;;;;;5.97;1.60;;;21.20;88.30;;;;;;5093901;28;20557;-58
2022/06/20 11:54:11;;;;;;;4.07;1.67;;;21.40;85.70;;;;;;5106982;28;20051;-57
2022/06/20 11:57:20;;;;;;;6.93;2.15;;;21.50;86.00;;;;;;5105982;28;20051;-58
2022/06/20 11:59:56;;;;;;;5.68;1.67;;;21.70;86.60;;;;;;5046239;28;20060;-57
2022/06/20 12:02:38;;;;;;;6.57;2.00;;;22.00;87.20;;;;;;5097176;28;20499;-58
2022/06/20 12:05:22;;;;;;;6.82;1.67;;;22.40;85.00;;;;;;5104888;28;20380;-58
2022/06/20 12:08:04;;;;;;;3.63;1.55;;;22.70;83.70;;;;;;5103531;28;20056;-57
2022/06/20 12:10:41;;;;;;;3.60;1.75;;;23.00;82.50;;;;;;5089525;28;20055;-58
2022/06/20 12:13:45;;;;;;;5.57;2.08;;;23.30;82.90;;;;;;5108548;28;20044;-58
2022/06/20 12:16:54;;;;;;;4.45;1.15;;;23.70;81.70;;;;;;5109874;28;20058;-58
2022/06/20 12:25:44;;;;;;;6.13;2.13;;;24.70;77.20;;;;;;5103998;28;20048;-60
2022/06/20 12:28:30;;;;;;;5.70;1.50;;;24.70;73.10;;;;;;5085216;28;20056;-58
2022/06/20 12:31:22;;;;;;;7.18;1.95;;;24.90;73.70;;;;;;5089314;28;20044;-58
2022/06/20 12:33:53;;;;;;;3.05;1.63;;;25.00;73.70;;;;;;5088519;28;20495;-58
2022/06/20 12:36:23;;;;;;;2.53;1.45;;;25.00;71.90;;;;;;5108531;28;20550;-58
2022/06/20 12:39:12;;;;;;;9.38;1.80;;;25.10;72.40;;;;;;5096116;28;20065;-59
2022/06/20 12:41:44;;;;;;;7.55;1.90;;;25.10;72.40;;;;;;5099272;28;20048;-59
2022/06/20 12:44:23;;;;;;;7.03;1.75;;;25.30;70.30;;;;;;5088068;28;20067;-59
2022/06/20 12:47:10;;;;;;;7.90;1.70;;;25.20;69.10;;;;;;5089086;28;20032;-59
2022/06/20 12:50:02;;;;;;;3.92;1.42;;;25.20;69.20;;;;;;5089272;28;20048;-60
2022/06/20 12:52:46;;;;;;;8.02;1.33;;;25.30;68.60;;;;;;5089231;28;20051;-59
2022/06/20 12:55:25;;;;;;;4.15;1.50;;;25.30;66.50;;;;;;5107583;28;20051;-59
2022/06/20 12:58:34;;;;;;;2.95;1.25;;;25.50;66.30;;;;;;5104082;28;20043;-59
2022/06/20 13:01:10;;;;;;;5.13;1.80;;;25.70;67.90;;;;;;5050454;28;20052;-61
2022/06/20 13:04:15;;;;;;;4.05;1.40;;;25.90;66.20;;;;;;5093050;28;20059;-60
2022/06/20 13:07:20;;;;;;;6.13;1.75;;;26.20;66.50;;;;;;5093825;28;20475;-60
2022/06/20 13:09:57;;;;;;;3.47;1.42;;;26.40;62.90;;;;;;5092758;28;20052;-59
2022/06/20 13:12:40;;;;;;;6.20;1.65;;;26.50;63.30;;;;;;5092696;28;20044;-59
2022/06/20 13:15:36;;;;;;;4.00;1.52;;;26.90;64.40;;;;;;5102910;28;20044;-60
2022/06/20 13:18:56;;;;;;;4.03;2.03;;;27.30;63.20;;;;;;5106036;28;20051;-60
2022/06/20 13:21:45;;;;;;;5.03;1.73;;;27.40;61.90;;;;;;5048404;28;20051;-60
2022/06/20 13:24:39;;;;;;;7.03;1.60;;;27.50;62.30;;;;;;5095067;28;20050;-59
2022/06/20 13:27:39;;;;;;;7.38;1.80;;;27.80;63.30;;;;;;5106004;28;20052;-58
2022/06/20 13:30:44;;;;;;;5.32;1.85;;;27.80;58.80;;;;;;5092401;28;20044;-59
2022/06/20 13:33:23;;;;;;;4.85;1.80;;;27.90;60.70;;;;;;5074560;28;20056;-59
2022/06/20 13:36:22;;;;;;;6.32;1.85;;;27.80;59.70;;;;;;5091935;28;20036;-57
2022/06/20 13:38:54;;;;;;;3.25;1.90;;;27.90;61.10;;;;;;5090802;28;20060;-58
2022/06/20 13:41:41;;;;;;;5.13;2.15;;;28.00;59.80;;;;;;5099159;28;20047;-58
2022/06/20 13:44:14;;;;;;;7.55;2.00;;;28.20;59.60;;;;;;5112663;28;20044;-58
2022/06/20 13:46:50;;;;;;;5.90;2.63;;;28.30;59.10;;;;;;5111252;28;20512;-58
2022/06/20 13:49:24;;;;;;;5.60;2.58;;;28.40;57.90;;;;;;5094029;28;20055;-58
2022/06/20 13:52:23;;;;;;;6.10;2.22;;;28.20;57.60;;;;;;5092021;28;20044;-57
2022/06/20 13:54:59;;;;;;;4.88;2.60;;;28.10;58.10;;;;;;5104324;28;20044;-59
2022/06/20 13:57:34;;;;;;;6.10;2.65;;;27.90;58.70;;;;;;5108868;28;20058;-58
2022/06/20 14:00:15;;;;;;;6.25;2.30;;;28.00;58.00;;;;;;5092905;28;20055;-58
2022/06/20 14:02:49;;;;;;;6.78;1.98;;;27.90;58.20;;;;;;5092428;28;20048;-58
2022/06/20 14:05:26;;;;;;;4.13;1.88;;;27.90;58.90;;;;;;5090344;28;20052;-58
2022/06/20 14:08:14;;;;;;;7.22;2.70;;;27.90;59.40;;;;;;5100786;28;20047;-58
2022/06/20 14:11:04;;;;;;;3.92;2.30;;;27.80;57.50;;;;;;5098942;28;20043;-59
2022/06/20 14:13:34;;;;;;;;;;;27.70;58.70;;;;;;5095963;28;20515;-58
2022/06/20 14:16:35;;;;;;;7.70;2.55;;;27.70;59.40;;;;;;5101935;28;19931;-58
2022/06/20 14:19:15;;;;;;;9.40;3.10;;;27.80;58.90;;;;;;5092176;28;20051;-58
2022/06/20 14:21:46;;;;;;;9.43;2.70;;;27.80;58.60;;;;;;5090908;28;20070;-58
2022/06/20 14:24:32;;;;;;;8.43;2.40;;;27.80;58.70;;;;;;5097146;28;20303;-58
2022/06/20 14:27:03;;;;;;;5.82;2.47;;;27.80;58.30;;;;;;5105969;28;20051;-58
2022/06/20 14:29:42;;;;;;;5.32;2.47;;;28.00;58.80;;;;;;5092823;28;20059;-57
2022/06/20 14:32:09;;;;;;;6.40;2.97;;;28.10;57.50;;;;;;5090910;28;20040;-58
2022/06/20 14:37:48;;;;;;;9.85;2.92;;;28.30;57.00;;;;;;5098071;28;20479;-58
2022/06/20 14:40:28;;;;;;;12.95;2.40;;;28.30;56.00;;;;;;5090695;28;20044;-58
2022/06/20 14:43:02;;;;;;;6.45;2.67;;;28.10;58.20;;;;;;5100729;28;20047;-58